GTI6016 KATL-LTFM
Flight info
| Callsign | GTI6016 |
|---|---|
| Flight time | N/A |
| Altitude | 29000 |
| Route | PLMMR3 BURGG DCT FAK DCT ENO/N0490F310 DCT VCN DCT CYN DCT RIFLE DCT HTO DCT BRADD N349B JOOPY/M083F320 NATY ELSOX/M082F330 DCT GAPLI/N0472F330 DCT LIZAD DCT JSY DCT TURDU DCT TADUP DCT TEPRI UN491 POGZI DCT GELTA DCT LUVAL DCT BEGAR/N0471F350 DCT TRA DCT GAMSA DCT GEDSO DCT GIMIX DCT AGLIB DCT OBISA DCT NISVA DCT DEDIN DCT AYTEK |
| Aircraft | B77L/H-SDE1E2E3FGHIJ2J3J4J5M1RWXY/LB1D1 |
Departure
| Time | 2026-05-07 23:24 |
|---|---|
| Airport | Hartsfield Jackson Atlanta International Airport (KATL) |
Arrival
| Time | N/A |
|---|---|
| Airport | İstanbul Airport (LTFM) |
| Time | Latitude | Longitude | Altitude | Speed | Heading |
|---|---|---|---|---|---|
| 2026-05-07 22:46 | 33.62675 | -84.42955 | 1040 ft | 0 kts | 270° |
| 2026-05-07 23:07 | 33.62675 | -84.42951 | 1040 ft | 0 kts | 270° |
| 2026-05-07 23:13 | 33.62675 | -84.42935 | 1040 ft | 3 kts | 270° |
| 2026-05-07 23:13 | 33.62675 | -84.42910 | 1040 ft | 3 kts | 275° |
| 2026-05-07 23:13 | 33.62669 | -84.42890 | 1040 ft | 3 kts | 288° |
| 2026-05-07 23:14 | 33.62662 | -84.42866 | 1040 ft | 3 kts | 288° |
| 2026-05-07 23:14 | 33.62658 | -84.42850 | 1040 ft | 3 kts | 333° |
| 2026-05-07 23:14 | 33.62653 | -84.42848 | 1040 ft | 0 kts | 359° |
| 2026-05-07 23:17 | 33.62679 | -84.42848 | 1040 ft | 6 kts | 359° |
| 2026-05-07 23:17 | 33.62718 | -84.42849 | 1040 ft | 0 kts | 360° |
| 2026-05-07 23:19 | 33.62721 | -84.42849 | 1040 ft | 4 kts | 360° |
| 2026-05-07 23:19 | 33.62787 | -84.42849 | 1040 ft | 15 kts | 359° |
| 2026-05-07 23:20 | 33.62892 | -84.42851 | 1040 ft | 15 kts | 359° |
| 2026-05-07 23:20 | 33.62973 | -84.42902 | 1040 ft | 8 kts | 311° |
| 2026-05-07 23:20 | 33.63020 | -84.42928 | 1040 ft | 8 kts | 350° |
| 2026-05-07 23:20 | 33.63055 | -84.42917 | 1040 ft | 5 kts | 39° |
| 2026-05-07 23:21 | 33.63074 | -84.42837 | 1040 ft | 12 kts | 89° |
| 2026-05-07 23:21 | 33.63075 | -84.42735 | 1039 ft | 12 kts | 91° |
| 2026-05-07 23:21 | 33.63074 | -84.42635 | 1039 ft | 13 kts | 89° |
| 2026-05-07 23:21 | 33.63074 | -84.42472 | 1039 ft | 23 kts | 90° |
| 2026-05-07 23:22 | 33.63075 | -84.42283 | 1039 ft | 23 kts | 89° |
| 2026-05-07 23:22 | 33.63075 | -84.42094 | 1039 ft | 22 kts | 91° |
| 2026-05-07 23:22 | 33.63075 | -84.41946 | 1040 ft | 9 kts | 89° |
| 2026-05-07 23:22 | 33.63082 | -84.41905 | 1040 ft | 5 kts | 66° |
| 2026-05-07 23:23 | 33.63118 | -84.41870 | 1040 ft | 8 kts | 24° |
| 2026-05-07 23:23 | 33.63171 | -84.41884 | 1039 ft | 9 kts | 309° |
| 2026-05-07 23:23 | 33.63183 | -84.42041 | 1039 ft | 48 kts | 270° |
| 2026-05-07 23:23 | 33.63182 | -84.42771 | 1040 ft | 126 kts | 270° |
| 2026-05-07 23:24 | 33.63185 | -84.44116 | 1051 ft | 192 kts | 271° |
| 2026-05-07 23:24 | 33.63158 | -84.45704 | 1800 ft | 187 kts | 271° |
| 2026-05-07 23:24 | 33.63056 | -84.47282 | 2550 ft | 199 kts | 257° |
| 2026-05-07 23:24 | 33.62454 | -84.48902 | 2839 ft | 225 kts | 248° |
| 2026-05-07 23:25 | 33.61794 | -84.50591 | 3751 ft | 223 kts | 249° |
| 2026-05-07 23:25 | 33.61142 | -84.52319 | 4363 ft | 232 kts | 249° |
| 2026-05-07 23:25 | 33.60463 | -84.54113 | 4878 ft | 238 kts | 248° |
| 2026-05-07 23:25 | 33.59767 | -84.55928 | 5410 ft | 242 kts | 245° |
| 2026-05-07 23:26 | 33.58684 | -84.57519 | 5805 ft | 257 kts | 218° |
| 2026-05-07 23:26 | 33.57013 | -84.58391 | 6335 ft | 268 kts | 196° |
| 2026-05-07 23:26 | 33.55123 | -84.58512 | 6887 ft | 276 kts | 185° |
| 2026-05-07 23:26 | 33.53187 | -84.58483 | 7383 ft | 280 kts | 186° |
| 2026-05-07 23:27 | 33.49277 | -84.58435 | 8573 ft | 284 kts | 179° |
| 2026-05-07 23:27 | 33.47357 | -84.57651 | 8891 ft | 306 kts | 147° |
| 2026-05-07 23:27 | 33.45947 | -84.55709 | 9352 ft | 318 kts | 115° |
| 2026-05-07 23:28 | 33.45477 | -84.53115 | 9759 ft | 323 kts | 90° |
| 2026-05-07 23:28 | 33.45520 | -84.50392 | 10096 ft | 332 kts | 88° |
| 2026-05-07 23:28 | 33.45580 | -84.47622 | 10598 ft | 335 kts | 88° |
| 2026-05-07 23:28 | 33.45619 | -84.44791 | 10921 ft | 347 kts | 89° |
| 2026-05-07 23:29 | 33.45627 | -84.41818 | 11058 ft | 367 kts | 90° |
| 2026-05-07 23:29 | 33.45616 | -84.38683 | 11220 ft | 386 kts | 90° |
| 2026-05-07 23:29 | 33.45721 | -84.35424 | 11314 ft | 399 kts | 77° |
| 2026-05-07 23:29 | 33.46735 | -84.32310 | 11463 ft | 408 kts | 52° |
| 2026-05-07 23:30 | 33.48613 | -84.29755 | 11691 ft | 409 kts | 38° |
| 2026-05-07 23:30 | 33.50688 | -84.27353 | 12052 ft | 421 kts | 39° |
| 2026-05-07 23:30 | 33.52780 | -84.24856 | 12599 ft | 427 kts | 39° |
| 2026-05-07 23:30 | 33.54886 | -84.22308 | 13158 ft | 433 kts | 40° |
| 2026-05-07 23:31 | 33.57003 | -84.19728 | 13744 ft | 437 kts | 39° |
| 2026-05-07 23:31 | 33.59107 | -84.17158 | 14248 ft | 442 kts | 39° |
| 2026-05-07 23:31 | 33.61285 | -84.14498 | 14733 ft | 449 kts | 39° |
| 2026-05-07 23:31 | 33.63492 | -84.11802 | 15221 ft | 454 kts | 39° |
| 2026-05-07 23:32 | 33.65715 | -84.09089 | 15743 ft | 459 kts | 39° |
| 2026-05-07 23:32 | 33.67963 | -84.06331 | 16234 ft | 464 kts | 39° |
| 2026-05-07 23:32 | 33.70239 | -84.03545 | 16662 ft | 471 kts | 39° |
| 2026-05-07 23:32 | 33.72542 | -84.00724 | 17157 ft | 475 kts | 38° |
| 2026-05-07 23:33 | 33.74861 | -83.97874 | 17610 ft | 480 kts | 39° |
| 2026-05-07 23:33 | 33.76446 | -83.95924 | 17893 ft | 484 kts | 38° |
| 2026-05-07 23:33 | 33.78782 | -83.93054 | 18315 ft | 489 kts | 38° |
| 2026-05-07 23:33 | 33.81170 | -83.90126 | 18791 ft | 492 kts | 38° |
| 2026-05-07 23:34 | 33.83566 | -83.87171 | 19275 ft | 495 kts | 38° |
| 2026-05-07 23:34 | 33.85978 | -83.84194 | 19732 ft | 499 kts | 38° |
| 2026-05-07 23:34 | 33.88411 | -83.81190 | 20187 ft | 502 kts | 38° |
| 2026-05-07 23:34 | 33.90857 | -83.78173 | 20621 ft | 505 kts | 38° |
| 2026-05-07 23:35 | 33.93320 | -83.75136 | 21027 ft | 509 kts | 38° |
| 2026-05-07 23:35 | 33.95784 | -83.72056 | 21416 ft | 514 kts | 41° |
| 2026-05-07 23:35 | 33.98099 | -83.68716 | 21787 ft | 523 kts | 46° |
| 2026-05-07 23:35 | 34.00267 | -83.65177 | 22198 ft | 528 kts | 49° |
| 2026-05-07 23:36 | 34.02381 | -83.61544 | 22595 ft | 530 kts | 50° |
| 2026-05-07 23:36 | 34.04493 | -83.57889 | 22884 ft | 534 kts | 49° |
| 2026-05-07 23:36 | 34.06651 | -83.54241 | 23226 ft | 536 kts | 48° |
| 2026-05-07 23:36 | 34.08852 | -83.50586 | 23568 ft | 539 kts | 48° |
| 2026-05-07 23:37 | 34.11081 | -83.46926 | 23905 ft | 542 kts | 48° |
| 2026-05-07 23:37 | 34.13322 | -83.43266 | 24213 ft | 545 kts | 47° |
| 2026-05-07 23:37 | 34.15582 | -83.39577 | 24545 ft | 548 kts | 47° |
| 2026-05-07 23:37 | 34.17850 | -83.35869 | 24889 ft | 550 kts | 47° |
| 2026-05-07 23:38 | 34.20122 | -83.32142 | 25228 ft | 552 kts | 47° |
| 2026-05-07 23:38 | 34.22406 | -83.28390 | 25528 ft | 555 kts | 47° |
| 2026-05-07 23:38 | 34.24698 | -83.24622 | 25832 ft | 559 kts | 47° |
| 2026-05-07 23:38 | 34.27003 | -83.20821 | 26093 ft | 562 kts | 47° |
| 2026-05-07 23:39 | 34.29318 | -83.17001 | 26423 ft | 564 kts | 47° |
| 2026-05-07 23:39 | 34.31643 | -83.13167 | 26754 ft | 565 kts | 47° |
| 2026-05-07 23:39 | 34.33983 | -83.09333 | 27028 ft | 568 kts | 47° |
| 2026-05-07 23:39 | 34.36345 | -83.05480 | 27289 ft | 571 kts | 47° |
| 2026-05-07 23:40 | 34.38721 | -83.01608 | 27565 ft | 574 kts | 47° |
| 2026-05-07 23:40 | 34.41104 | -82.97716 | 27834 ft | 576 kts | 47° |
| 2026-05-07 23:40 | 34.43492 | -82.93806 | 28099 ft | 579 kts | 47° |
| 2026-05-07 23:40 | 34.45890 | -82.89871 | 28347 ft | 581 kts | 47° |
| 2026-05-07 23:41 | 34.48293 | -82.85923 | 28604 ft | 584 kts | 47° |
| 2026-05-07 23:41 | 34.50705 | -82.81955 | 28836 ft | 586 kts | 47° |
| 2026-05-07 23:41 | 34.55552 | -82.73964 | 28912 ft | 588 kts | 47° |
| 2026-05-07 23:42 | 34.60360 | -82.66008 | 28895 ft | 583 kts | 47° |
| 2026-05-07 23:42 | 34.65156 | -82.58077 | 28915 ft | 582 kts | 47° |
| 2026-05-07 23:43 | 34.69915 | -82.50113 | 28913 ft | 583 kts | 47° |
| 2026-05-07 23:43 | 34.74624 | -82.42066 | 28899 ft | 586 kts | 48° |
| 2026-05-07 23:44 | 34.79346 | -82.33967 | 28907 ft | 588 kts | 48° |
| 2026-05-07 23:44 | 34.84092 | -82.25841 | 28893 ft | 590 kts | 48° |
| 2026-05-07 23:45 | 34.88849 | -82.17680 | 28890 ft | 592 kts | 48° |
| 2026-05-07 23:45 | 34.93613 | -82.09500 | 28899 ft | 593 kts | 48° |
| 2026-05-07 23:46 | 34.98376 | -82.01283 | 28889 ft | 593 kts | 48° |
| 2026-05-07 23:46 | 35.03138 | -81.93061 | 28895 ft | 593 kts | 48° |
| 2026-05-07 23:47 | 35.08070 | -81.85050 | 28893 ft | 589 kts | 44° |
| 2026-05-07 23:47 | 35.13204 | -81.77243 | 28907 ft | 588 kts | 43° |
| 2026-05-07 23:48 | 35.18293 | -81.69489 | 28913 ft | 590 kts | 44° |
| 2026-05-07 23:48 | 35.23349 | -81.61630 | 28926 ft | 593 kts | 45° |
| 2026-05-07 23:49 | 35.28401 | -81.53708 | 28936 ft | 595 kts | 45° |
| 2026-05-07 23:49 | 35.33482 | -81.45728 | 28931 ft | 598 kts | 44° |
| 2026-05-07 23:50 | 35.38596 | -81.37690 | 28925 ft | 599 kts | 45° |
| 2026-05-07 23:50 | 35.43619 | -81.29775 | 28926 ft | 598 kts | 45° |
| 2026-05-07 23:51 | 35.48723 | -81.21717 | 28928 ft | 597 kts | 45° |
| 2026-05-07 23:51 | 35.53811 | -81.13667 | 28918 ft | 597 kts | 45° |
| 2026-05-07 23:52 | 35.58892 | -81.05608 | 28922 ft | 596 kts | 45° |
| 2026-05-07 23:52 | 35.63942 | -80.97580 | 28929 ft | 596 kts | 45° |
| 2026-05-07 23:53 | 35.69005 | -80.89515 | 28947 ft | 595 kts | 45° |
| 2026-05-07 23:53 | 35.74053 | -80.81457 | 28973 ft | 595 kts | 45° |
| 2026-05-07 23:54 | 35.79109 | -80.73372 | 28947 ft | 597 kts | 45° |
| 2026-05-07 23:54 | 35.84180 | -80.65236 | 28972 ft | 598 kts | 45° |
| 2026-05-07 23:55 | 35.89246 | -80.57076 | 28963 ft | 600 kts | 45° |
| 2026-05-07 23:55 | 35.94324 | -80.48893 | 28950 ft | 601 kts | 46° |
| 2026-05-07 23:56 | 35.99409 | -80.40680 | 28938 ft | 603 kts | 46° |
| 2026-05-07 23:56 | 36.04493 | -80.32451 | 28952 ft | 603 kts | 46° |
| 2026-05-07 23:57 | 36.09575 | -80.24194 | 28947 ft | 604 kts | 46° |
| 2026-05-07 23:57 | 36.14655 | -80.15928 | 28941 ft | 603 kts | 46° |
| 2026-05-07 23:58 | 36.19691 | -80.07707 | 28925 ft | 603 kts | 46° |
| 2026-05-07 23:58 | 36.24746 | -79.99444 | 28932 ft | 602 kts | 46° |
| 2026-05-07 23:59 | 36.29783 | -79.91180 | 28932 ft | 602 kts | 46° |
| 2026-05-07 23:59 | 36.34821 | -79.82908 | 28940 ft | 601 kts | 46° |
| 2026-05-08 00:00 | 36.39805 | -79.74690 | 28945 ft | 601 kts | 47° |
| 2026-05-08 00:00 | 36.44831 | -79.66384 | 28931 ft | 601 kts | 47° |
| 2026-05-08 00:01 | 36.49840 | -79.58096 | 28976 ft | 599 kts | 45° |
| 2026-05-08 00:01 | 36.54787 | -79.49878 | 28934 ft | 588 kts | 45° |
| 2026-05-08 00:02 | 36.59683 | -79.41737 | 28948 ft | 588 kts | 45° |
| 2026-05-08 00:02 | 36.64581 | -79.33573 | 28947 ft | 588 kts | 45° |
| 2026-05-08 00:03 | 36.69462 | -79.25428 | 28950 ft | 588 kts | 46° |
| 2026-05-08 00:03 | 36.74351 | -79.17233 | 28951 ft | 589 kts | 46° |
| 2026-05-08 00:04 | 36.79228 | -79.09045 | 28939 ft | 587 kts | 46° |
| 2026-05-08 00:04 | 36.84080 | -79.00862 | 28943 ft | 586 kts | 46° |
| 2026-05-08 00:05 | 36.88922 | -78.92702 | 28944 ft | 584 kts | 46° |
| 2026-05-08 00:05 | 36.93740 | -78.84543 | 28937 ft | 583 kts | 46° |
| 2026-05-08 00:06 | 36.98553 | -78.76379 | 28945 ft | 583 kts | 46° |
| 2026-05-08 00:06 | 37.03368 | -78.68207 | 28945 ft | 583 kts | 47° |
| 2026-05-08 00:07 | 37.08170 | -78.60022 | 28941 ft | 583 kts | 47° |
| 2026-05-08 00:07 | 37.12958 | -78.51837 | 28946 ft | 582 kts | 47° |
| 2026-05-08 00:08 | 37.17732 | -78.43655 | 28940 ft | 581 kts | 47° |
| 2026-05-08 00:08 | 37.22487 | -78.35481 | 28933 ft | 579 kts | 47° |
| 2026-05-08 00:09 | 37.27236 | -78.27325 | 28939 ft | 578 kts | 47° |
| 2026-05-08 00:09 | 37.31971 | -78.19158 | 28946 ft | 578 kts | 47° |
| 2026-05-08 00:10 | 37.34315 | -78.15107 | 29113 ft | 581 kts | 47° |
| 2026-05-08 00:10 | 37.36714 | -78.10953 | 29555 ft | 579 kts | 47° |
| 2026-05-08 00:10 | 37.39070 | -78.06864 | 30073 ft | 575 kts | 47° |
| 2026-05-08 00:10 | 37.41414 | -78.02797 | 30425 ft | 575 kts | 47° |
| 2026-05-08 00:11 | 37.43734 | -77.98772 | 30657 ft | 577 kts | 47° |
| 2026-05-08 00:11 | 37.46089 | -77.94680 | 30845 ft | 579 kts | 47° |
| 2026-05-08 00:11 | 37.50824 | -77.86428 | 30933 ft | 580 kts | 47° |
| 2026-05-08 00:12 | 37.55858 | -77.78671 | 30942 ft | 565 kts | 38° |
| 2026-05-08 00:12 | 37.61340 | -77.71586 | 30953 ft | 564 kts | 37° |
| 2026-05-08 00:13 | 37.66832 | -77.64500 | 30947 ft | 565 kts | 38° |
| 2026-05-08 00:13 | 37.72287 | -77.57352 | 30943 ft | 566 kts | 38° |
| 2026-05-08 00:14 | 37.77734 | -77.50148 | 30944 ft | 566 kts | 38° |
| 2026-05-08 00:14 | 37.83172 | -77.42937 | 30949 ft | 567 kts | 38° |
| 2026-05-08 00:15 | 37.88620 | -77.35703 | 30940 ft | 567 kts | 38° |
| 2026-05-08 00:15 | 37.94062 | -77.28465 | 30938 ft | 567 kts | 39° |
| 2026-05-08 00:16 | 37.99500 | -77.21214 | 30934 ft | 568 kts | 39° |
| 2026-05-08 00:16 | 38.04939 | -77.13944 | 30937 ft | 568 kts | 39° |
| 2026-05-08 00:17 | 38.10373 | -77.06669 | 30927 ft | 568 kts | 39° |
| 2026-05-08 00:17 | 38.15800 | -76.99383 | 30943 ft | 567 kts | 39° |
| 2026-05-08 00:18 | 38.21220 | -76.92091 | 30930 ft | 567 kts | 39° |
| 2026-05-08 00:18 | 38.26595 | -76.84844 | 30930 ft | 567 kts | 39° |
| 2026-05-08 00:19 | 38.32006 | -76.77529 | 30925 ft | 568 kts | 40° |
| 2026-05-08 00:19 | 38.37418 | -76.70196 | 30925 ft | 568 kts | 40° |
| 2026-05-08 00:20 | 38.42821 | -76.62857 | 30915 ft | 568 kts | 40° |
| 2026-05-08 00:20 | 38.47351 | -76.56689 | 30921 ft | 568 kts | 40° |
| 2026-05-08 00:21 | 38.52754 | -76.49324 | 30915 ft | 569 kts | 40° |
| 2026-05-08 00:21 | 38.58125 | -76.41984 | 30907 ft | 569 kts | 40° |
| 2026-05-08 00:22 | 38.63520 | -76.34587 | 30910 ft | 569 kts | 40° |
| 2026-05-08 00:22 | 38.68908 | -76.27182 | 30910 ft | 568 kts | 40° |
| 2026-05-08 00:23 | 38.74295 | -76.19768 | 30908 ft | 568 kts | 40° |
| 2026-05-08 00:23 | 38.79671 | -76.12349 | 30907 ft | 568 kts | 40° |
| 2026-05-08 00:24 | 38.85047 | -76.04912 | 30909 ft | 568 kts | 40° |
| 2026-05-08 00:24 | 38.90417 | -75.97467 | 30908 ft | 568 kts | 40° |
| 2026-05-08 00:25 | 38.95778 | -75.90013 | 30900 ft | 568 kts | 41° |
| 2026-05-08 00:25 | 39.01143 | -75.82532 | 30903 ft | 569 kts | 41° |
| 2026-05-08 00:26 | 39.06512 | -75.75029 | 30899 ft | 570 kts | 41° |
| 2026-05-08 00:26 | 39.11885 | -75.67510 | 30878 ft | 571 kts | 41° |
| 2026-05-08 00:27 | 39.17253 | -75.59973 | 30875 ft | 571 kts | 41° |
| 2026-05-08 00:27 | 39.22613 | -75.52406 | 30896 ft | 572 kts | 43° |
| 2026-05-08 00:28 | 39.27485 | -75.44201 | 30885 ft | 578 kts | 50° |
| 2026-05-08 00:28 | 39.32136 | -75.35742 | 30881 ft | 578 kts | 50° |
| 2026-05-08 00:29 | 39.36810 | -75.27294 | 30869 ft | 578 kts | 49° |
| 2026-05-08 00:29 | 39.41513 | -75.18850 | 30876 ft | 578 kts | 49° |
| 2026-05-08 00:30 | 39.46199 | -75.10422 | 30864 ft | 578 kts | 49° |
| 2026-05-08 00:30 | 39.50885 | -75.01976 | 30869 ft | 577 kts | 50° |
| 2026-05-08 00:31 | 39.55510 | -74.93565 | 30867 ft | 577 kts | 51° |
| 2026-05-08 00:31 | 39.60016 | -74.84967 | 30884 ft | 577 kts | 52° |
| 2026-05-08 00:32 | 39.64464 | -74.76375 | 30882 ft | 577 kts | 52° |
| 2026-05-08 00:32 | 39.68954 | -74.67746 | 30886 ft | 577 kts | 52° |
| 2026-05-08 00:33 | 39.73439 | -74.59139 | 30874 ft | 577 kts | 52° |
| 2026-05-08 00:33 | 39.77925 | -74.50498 | 30874 ft | 576 kts | 52° |
| 2026-05-08 00:34 | 39.82368 | -74.41903 | 30897 ft | 575 kts | 52° |
| 2026-05-08 00:34 | 39.86676 | -74.33146 | 30901 ft | 575 kts | 54° |
| 2026-05-08 00:35 | 39.90872 | -74.24352 | 30880 ft | 574 kts | 54° |
| 2026-05-08 00:35 | 39.95077 | -74.15555 | 30881 ft | 573 kts | 54° |
| 2026-05-08 00:36 | 39.99317 | -74.06739 | 30884 ft | 572 kts | 54° |
| 2026-05-08 00:36 | 40.03443 | -73.98151 | 30897 ft | 571 kts | 54° |
| 2026-05-08 00:37 | 40.07651 | -73.89358 | 30877 ft | 570 kts | 54° |
| 2026-05-08 00:38 | 40.13919 | -73.76207 | 30880 ft | 571 kts | 55° |
| 2026-05-08 00:38 | 40.18090 | -73.67430 | 30899 ft | 572 kts | 55° |
| 2026-05-08 00:39 | 40.22286 | -73.58575 | 30879 ft | 573 kts | 55° |
| 2026-05-08 00:39 | 40.26443 | -73.49773 | 30879 ft | 574 kts | 55° |